Strona główna
METAR-TAF:

METAR-TAF

Lotnisko :

Blue Grass Airport

Lexington, Kentucky, Stany Zjednoczone

Szerokość geograficzna: 38-02-27N, Długość geograficzna: 084-36-21W, wysokość: 298 m

Aktualna obserwacja pogody

Raport powstał 1 godzina i 10 minut temu, godzina 00:54 UTC
Wiatr 4 kt od południowy zachód
Temperatura 24°C
Wilgotność 61%
Ciśnienie 1012 hPa
Widzialność: 16.1 km
bezchmurnie

METAR: KLEX 040054Z 22004KT 10SM CLR 24/16 A2987 RMK AO2 SLP106 T02440156

czas: 22:04 (02:04 UTC)

Prognoza

Raport powstał 2 godziny i 44 minut temu, godzina 23:20 UTC
Prognoza ważna od 04 godzina 00 UTC do 04 godzina 24 UTC
Wiatr 8 kt od południowy zachód
Widzialność: 10 km
Rozproszone chmury na wysokości 25000 ft
Od 04 godzina 1400 UTC
Wiatr 9 kt od południowo-południowy zachód
Widzialność: 10 km
Rozproszone chmury na wysokości 3000 ft
Przerywane chmury na wysokości 10000 ft

TAF: KLEX 032320Z 0400/0424 22008KT P6SM SCT250 FM041400 21009KT P6SM SCT030 BKN100

Obserwacja i prognoza pogody dla ponad 4000 lotnisk (raport METAR i TAF).

Dostępne stacje oznaczono żółtymi i czerwonymi punktami na mapie.

Najedź kursorem aby zobaczyć nazwę stacji.

Kliknij aby zobaczyć obserwacje i prognozy pogody.

Aby zmienić mapę: kliknij na zielony przycisk z czarnym krzyżykiem, aby powiększyć; na zielony przycisk z myślnikiem, aby pomniejszyć; na zielone strzałki, aby przejść do map sąsiednich.


METAR-TAF: